SADFSAAR

Guest
Details From SADF - San Fernando
To SAAR - Rosario (islas Malvinas)
Flight Number -
Tags Generated
Created
Modified
Stats Distance 143 nm / 266 km
Max Altitude 0 ft / 0 m
Waypoints 2
Social Downloads 1
Likes 0
Share VATSIM

Download

Looking for another format? Having issues loading an existing format? Contact us
Advertisement - Login to hide

Notes

Generated

Route

SADF SAAR

ID Type Via Altitude Latitude Longitude Leg Dist Tot Dist Heading (true) Name
O SADF APT - 0 ft / 0 m -34.45986˚ -58.59704˚ - 0 nm - -
O SAAR APT - 0 ft / 0 m -32.91677˚ -60.78765˚ 143 nm 143 nm 310° / 311° -

Altitude Profile

Advertisement - Login to hide

SADF

Details ICAO SADF
Name San Fernando
Region Argentina
Timezone America/Argentina/Buenos_Aires (UTC-3.0)
Stats Elevation 10 ft / 3 m (AMSL)
Location -34.454044° -58.590226°
Runways 1
Magnetic Variation 8.890° W

METAR

SADF 111500Z 07010KT 010V110 9999 FEW040 20/09 Q1017

Decode

TAF

TAF TAF SADF 111100Z 1112/1212 11010KT 9999 SCT020 TX26/1118Z TN16/1209Z BECMG 1114/1116 09010KT BECMG 1204/1206 02010KT

Decode

Departure Runways

ID Width Length Bearing (true) Bearing (mag) Surface Threshold Offset Overrun Length
05 131 ft / 40 m 5,904 ft / 1,800 m 44.03° 52.92° Asphalt 0 ft / 0 m 0 ft / 0 m
23 131 ft / 40 m 5,904 ft / 1,800 m 224.02° 232.91° Asphalt 899 ft / 274 m 0 ft / 0 m

SAAR

Details ICAO SAAR (ROS)
Name Rosario (Islas Malvinas)
Region Argentina
Timezone America/Argentina/Cordoba (UTC-3.0)
Stats Elevation 85 ft / 26 m (AMSL)
Location -32.903472° -60.784635°
Runways 1
Magnetic Variation 7.839° W

METAR

SAAR 111500Z 07007KT CAVOK 22/08 Q1017

Decode

TAF

TAF SAAR 111100Z 1112/1212 14010KT CAVOK TX27/1118Z TN16/1210Z BECMG 1117/1119 11010KT BECMG 1206/1208 05010KT

Decode

Destination Runways

ID Width Length Bearing (true) Bearing (mag) Surface Threshold Offset Overrun Length
02 148 ft / 45 m 9,878 ft / 3,011 m 10.78° 18.62° Concrete 0 ft / 0 m 128 ft / 39 m
20 148 ft / 45 m 9,878 ft / 3,011 m 190.78° 198.62° Concrete 0 ft / 0 m 0 ft / 0 m

Approach Navaids

Runway Type Ident Frequency Range Bearing (true) Bearing (mag) Slope Elevation
20 Localiser RO 109.90 MHz 18 nm / 33 km 190.75° 198.59° - 87 ft / 27 m (AMSL)
20 Glidescope RO 109.90 MHz 10 nm / 19 km 190.78° 198.62° 3.00° 138 ft / 42 m (AMSL)
20 DME RO 109.90 MHz 18 nm / 33 km - - - 138 ft / 42 m (AMSL)
20 DME RO 109.90 MHz 18 nm / 33 km - - - 138 ft / 42 m (AMSL)

Popular Alternatives